Time;durP1;ratioP1;P1;durP2;ratioP2;P2;SDS_P1;SDS_P2;PMS_P1;PMS_P2;Temp;Humidity;BMP_temperature;BMP_pressure;BME280_temperature;BME280_humidity;BME280_pressure;Samples;Min_cycle;Max_cycle;Signal;HPM_P1;HPM_P2
2023/05/18 00:00:15;;;;;;;1.20;0.60;;;;;;;24.16;37.54;102711.38;5051663;27;97246;-74
2023/05/18 00:02:42;;;;;;;0.93;0.60;;;;;;;24.16;37.21;102717.72;5050595;27;97491;-74
2023/05/18 00:05:11;;;;;;;1.30;0.52;;;;;;;24.17;37.44;102724.06;5051417;27;97539;-74
2023/05/18 00:07:38;;;;;;;0.85;0.50;;;;;;;24.16;37.39;102725.09;5049506;27;96642;-74
2023/05/18 00:10:06;;;;;;;1.42;0.70;;;;;;;24.14;37.62;102722.50;5049077;27;96867;-73
2023/05/18 00:12:32;;;;;;;1.50;0.73;;;;;;;24.15;37.74;102715.13;5049860;27;97201;-74
2023/05/18 00:14:59;;;;;;;1.23;0.70;;;;;;;24.15;37.51;102723.38;5050122;27;96901;-73
2023/05/18 00:17:25;;;;;;;0.98;0.52;;;;;;;24.15;37.44;102723.38;5050711;27;98294;-74
2023/05/18 00:19:52;;;;;;;2.03;0.70;;;;;;;24.14;37.27;102719.75;5051580;27;96705;-74
2023/05/18 00:22:18;;;;;;;1.00;0.70;;;;;;;24.14;37.38;102724.38;5049361;27;97248;-73
2023/05/18 00:24:46;;;;;;;1.40;0.50;;;;;;;24.13;37.51;102720.78;5049207;27;98124;-74
2023/05/18 00:27:13;;;;;;;1.23;0.60;;;;;;;24.13;37.28;102723.53;5049752;27;97943;-74
2023/05/18 00:29:40;;;;;;;1.30;0.60;;;;;;;24.14;37.28;102721.63;5051634;27;97287;-74
2023/05/18 00:32:07;;;;;;;1.88;0.50;;;;;;;24.13;37.94;102720.78;5049658;27;96794;-75
2023/05/18 00:34:35;;;;;;;0.68;0.50;;;;;;;24.12;37.29;102720.94;5049489;27;97887;-73
2023/05/18 00:37:02;;;;;;;1.40;0.57;;;;;;;24.12;37.32;102720.94;5049925;27;96806;-73
2023/05/18 00:39:28;;;;;;;1.13;0.50;;;;;;;24.12;37.34;102726.41;5049158;27;96801;-74
2023/05/18 00:41:55;;;;;;;1.70;0.60;;;;;;;24.12;37.21;102721.78;5050593;27;96794;-73
2023/05/18 00:44:23;;;;;;;0.73;0.50;;;;;;;24.12;37.42;102726.41;5049907;27;97472;-74
2023/05/18 00:46:50;;;;;;;1.10;0.52;;;;;;;24.11;37.32;102725.56;5049839;27;97917;-73
2023/05/18 00:49:17;;;;;;;1.25;0.57;;;;;;;24.10;37.32;102723.81;5049500;27;96806;-73
2023/05/18 00:51:44;;;;;;;1.65;0.75;;;;;;;24.09;37.38;102727.59;5048956;27;96696;-73
2023/05/18 00:54:11;;;;;;;0.95;0.50;;;;;;;24.10;37.40;102729.31;5047936;27;100181;-74
2023/05/18 00:56:41;;;;;;;1.55;0.40;;;;;;;24.09;37.41;102724.84;5050210;27;96666;-73
2023/05/18 00:59:11;;;;;;;1.23;0.68;;;;;;;24.09;37.35;102730.34;5048387;27;96798;-73
2023/05/18 01:01:42;;;;;;;2.30;0.57;;;;;;;24.08;37.28;102726.72;5049811;27;96768;-73
2023/05/18 01:04:12;;;;;;;0.70;0.40;;;;;;;24.07;37.48;102727.72;5047123;27;98874;-74
2023/05/18 01:06:41;;;;;;;1.25;0.80;;;;;;;24.08;37.29;102726.72;5048264;27;96890;-74
2023/05/18 01:09:10;;;;;;;1.00;0.45;;;;;;;24.08;37.20;102726.72;5050202;27;96745;-74
2023/05/18 01:12:04;;;;;;;0.52;0.40;;;;;;;24.08;37.46;102726.72;5048740;27;96647;-74
2023/05/18 01:14:49;;;;;;;0.95;0.57;;;;;;;24.07;37.40;102729.63;5053831;27;96863;-73
2023/05/18 01:17:38;;;;;;;0.80;0.50;;;;;;;24.06;37.43;102726.00;5050614;27;97235;-74
2023/05/18 01:20:27;;;;;;;0.95;0.57;;;;;;;24.04;37.31;102730.78;5049060;27;96937;-74
2023/05/18 01:23:13;;;;;;;1.23;0.70;;;;;;;24.04;37.07;102733.53;5048401;27;97599;-74
2023/05/18 01:25:55;;;;;;;2.05;0.40;;;;;;;24.03;37.16;102733.69;5048015;27;97530;-73
2023/05/18 01:28:26;;;;;;;1.35;0.60;;;;;;;24.03;37.18;102733.69;5031326;27;98890;-73
2023/05/18 01:30:54;;;;;;;1.13;0.50;;;;;;;24.03;37.25;102733.69;5050110;27;96715;-73
2023/05/18 01:33:21;;;;;;;1.90;0.52;;;;;;;24.03;37.04;102733.69;5048058;27;96871;-74
2023/05/18 01:35:47;;;;;;;1.02;0.43;;;;;;;24.03;37.56;102739.16;5047815;27;98100;-73
2023/05/18 01:38:17;;;;;;;0.68;0.40;;;;;;;24.03;37.19;102731.81;5049677;27;96822;-73
2023/05/18 01:41:15;;;;;;;0.90;0.40;;;;;;;24.03;37.40;102734.53;5036498;27;96706;-73
2023/05/18 01:44:14;;;;;;;1.00;0.47;;;;;;;24.02;37.27;102738.31;5049525;27;96893;-73
2023/05/18 01:47:03;;;;;;;1.02;0.50;;;;;;;24.00;37.29;102734.84;5049130;27;96957;-73
2023/05/18 01:49:45;;;;;;;1.10;0.40;;;;;;;24.00;37.31;102732.09;5047875;27;97414;-73
2023/05/18 01:52:21;;;;;;;1.48;0.80;;;;;;;23.99;37.31;102738.59;5034874;27;97359;-74
2023/05/18 01:54:55;;;;;;;1.02;0.60;;;;;;;24.00;37.36;102737.59;5047594;27;96885;-73
2023/05/18 01:57:26;;;;;;;1.45;0.60;;;;;;;24.00;37.43;102733.97;5031215;27;100698;-73
2023/05/18 01:59:54;;;;;;;0.82;0.40;;;;;;;23.99;37.24;102738.59;5030820;27;100774;-74
2023/05/18 02:02:21;;;;;;;1.48;0.57;;;;;;;23.99;37.27;102730.38;5047568;27;96885;-73
2023/05/18 02:04:48;;;;;;;1.02;0.47;;;;;;;24.00;37.27;102732.09;5047433;27;96726;-73
2023/05/18 02:07:15;;;;;;;0.80;0.50;;;;;;;24.00;37.43;102731.25;5047624;27;97763;-74
2023/05/18 02:09:43;;;;;;;1.02;0.60;;;;;;;23.99;36.82;102727.63;5049528;27;97269;-73
2023/05/18 02:12:10;;;;;;;1.00;0.52;;;;;;;24.00;37.25;102732.09;5049266;27;97072;-73
2023/05/18 02:14:36;;;;;;;1.08;0.55;;;;;;;23.99;37.31;102726.75;5047404;27;97173;-73
2023/05/18 02:17:05;;;;;;;0.85;0.50;;;;;;;23.99;37.34;102727.63;5035713;27;99664;-74
2023/05/18 02:19:37;;;;;;;1.52;0.68;;;;;;;23.99;37.03;102727.63;5044245;27;100505;-73
2023/05/18 02:22:05;;;;;;;0.50;0.40;;;;;;;23.99;37.16;102729.50;5037611;27;96718;-74
2023/05/18 02:24:33;;;;;;;1.15;0.50;;;;;;;23.99;37.44;102722.16;5050787;27;97046;-74
2023/05/18 02:27:00;;;;;;;1.10;0.70;;;;;;;23.98;37.13;102725.91;5037966;27;97609;-73
2023/05/18 02:29:26;;;;;;;0.50;0.40;;;;;;;23.99;37.13;102726.75;5051130;27;100691;-73
2023/05/18 02:31:54;;;;;;;1.42;0.60;;;;;;;23.98;37.08;102723.16;5041596;27;97205;-73
2023/05/18 02:34:21;;;;;;;0.73;0.40;;;;;;;23.98;37.12;102719.53;5049008;27;96899;-74
2023/05/18 02:36:48;;;;;;;1.38;0.50;;;;;;;23.98;37.46;102714.06;5016891;27;99229;-74
2023/05/18 02:39:16;;;;;;;0.93;0.40;;;;;;;23.98;37.03;102725.91;5045430;27;100720;-73
2023/05/18 02:41:42;;;;;;;0.98;0.60;;;;;;;23.98;37.13;102714.91;5047313;27;96963;-73
2023/05/18 02:44:11;;;;;;;0.70;0.40;;;;;;;23.98;37.27;102714.91;5050451;27;97289;-73
2023/05/18 02:46:37;;;;;;;0.85;0.55;;;;;;;23.97;37.33;102710.44;5050455;27;98941;-74
2023/05/18 02:49:05;;;;;;;1.20;0.68;;;;;;;23.97;37.15;102710.44;5033603;27;100142;-74
2023/05/18 02:51:32;;;;;;;1.85;0.63;;;;;;;23.97;37.16;102715.94;5034062;27;96693;-74
2023/05/18 02:53:59;;;;;;;1.35;0.68;;;;;;;23.97;37.02;102713.19;5050134;27;97121;-73
2023/05/18 02:56:27;;;;;;;1.27;0.40;;;;;;;23.97;37.17;102709.59;5049991;27;100269;-74
2023/05/18 02:59:05;;;;;;;1.88;0.60;;;;;;;23.96;37.08;102713.34;5050741;27;98857;-73
2023/05/18 03:01:40;;;;;;;1.25;0.55;;;;;;;23.95;37.15;102715.22;5050522;27;97327;-73
2023/05/18 03:04:07;;;;;;;0.90;0.50;;;;;;;23.95;37.09;102711.63;5050513;27;97180;-73
2023/05/18 03:06:39;;;;;;;1.95;0.63;;;;;;;23.94;37.28;102705.25;5030671;27;100877;-74
2023/05/18 03:09:05;;;;;;;0.70;0.50;;;;;;;23.94;36.97;102713.50;5050636;27;100629;-74
2023/05/18 03:11:39;;;;;;;0.75;0.47;;;;;;;23.94;36.78;102708.00;5050444;27;96853;-73
2023/05/18 03:14:07;;;;;;;0.65;0.40;;;;;;;23.94;36.98;102712.63;5049641;27;96957;-73
2023/05/18 03:16:37;;;;;;;0.60;0.50;;;;;;;23.94;37.11;102712.63;5030271;27;99930;-73
2023/05/18 03:19:07;;;;;;;1.25;0.60;;;;;;;23.93;37.11;102713.66;5049692;27;99685;-74
2023/05/18 03:21:37;;;;;;;1.40;0.60;;;;;;;23.93;37.11;102721.88;5050181;27;97307;-73
2023/05/18 03:24:05;;;;;;;1.27;0.60;;;;;;;23.93;36.97;102716.41;5050179;27;96915;-74
2023/05/18 03:26:35;;;;;;;1.48;0.70;;;;;;;23.92;36.80;102721.03;5032593;27;99122;-74
2023/05/18 03:29:02;;;;;;;0.70;0.40;;;;;;;23.92;37.10;102718.28;5050021;27;100203;-73
2023/05/18 03:31:29;;;;;;;0.60;0.40;;;;;;;23.92;36.82;102714.66;5049238;27;97016;-73
2023/05/18 03:33:58;;;;;;;1.13;0.47;;;;;;;23.92;37.34;102717.41;5048837;27;96853;-73
2023/05/18 03:36:26;;;;;;;1.17;0.60;;;;;;;23.92;37.06;102714.66;5050720;27;97161;-73
2023/05/18 03:38:53;;;;;;;0.95;0.50;;;;;;;23.91;36.87;102718.44;5050369;27;97624;-73
2023/05/18 03:41:20;;;;;;;1.58;0.63;;;;;;;23.91;36.97;102715.69;5042194;27;97455;-73
2023/05/18 03:43:48;;;;;;;1.33;0.60;;;;;;;23.91;37.09;102713.81;5042295;27;96913;-73
2023/05/18 03:46:15;;;;;;;0.80;0.50;;;;;;;23.91;37.09;102713.81;5050966;27;96760;-73
2023/05/18 03:48:41;;;;;;;1.00;0.40;;;;;;;23.91;36.81;102716.53;5033089;27;99144;-73
2023/05/18 03:51:08;;;;;;;0.93;0.50;;;;;;;23.89;36.93;102713.09;5051255;27;96881;-74
2023/05/18 03:53:35;;;;;;;0.52;0.50;;;;;;;23.90;37.02;102716.69;5050461;27;97118;-73
2023/05/18 03:56:01;;;;;;;1.50;0.50;;;;;;;23.89;36.86;102715.84;5048626;27;100068;-74
2023/05/18 03:58:28;;;;;;;1.10;0.60;;;;;;;23.89;36.94;102724.06;5049945;27;100362;-73
2023/05/18 04:00:57;;;;;;;1.20;0.50;;;;;;;23.88;36.88;102725.06;5049349;27;96803;-73
2023/05/18 04:03:25;;;;;;;1.35;0.73;;;;;;;23.88;37.06;102716.84;5050573;27;96755;-73
2023/05/18 04:05:52;;;;;;;0.98;0.40;;;;;;;23.88;36.72;102725.06;5032395;27;99045;-73
2023/05/18 04:08:19;;;;;;;0.95;0.35;;;;;;;23.87;37.02;102726.09;5048933;27;99518;-74
2023/05/18 04:10:46;;;;;;;1.30;0.57;;;;;;;23.87;37.02;102730.72;5050804;27;97254;-74
2023/05/18 04:13:12;;;;;;;0.70;0.50;;;;;;;23.87;36.91;102733.47;5031318;27;96774;-73
2023/05/18 04:15:39;;;;;;;0.77;0.50;;;;;;;23.87;36.99;102731.59;5050348;27;96867;-73
2023/05/18 04:18:07;;;;;;;1.20;0.50;;;;;;;23.87;36.97;102734.31;5050375;27;98659;-74
2023/05/18 04:20:33;;;;;;;1.13;0.50;;;;;;;23.87;36.94;102734.31;5048973;27;96839;-74
2023/05/18 04:23:00;;;;;;;0.73;0.55;;;;;;;23.86;36.83;102735.34;5049113;27;96979;-74
2023/05/18 04:25:26;;;;;;;1.63;0.52;;;;;;;23.86;37.06;102738.09;5050164;27;98264;-73
2023/05/18 04:27:54;;;;;;;1.60;0.55;;;;;;;23.87;37.08;102744.44;5050938;27;97151;-73
2023/05/18 04:30:22;;;;;;;1.15;0.50;;;;;;;23.86;37.04;102748.19;5049387;27;96726;-73
2023/05/18 04:32:50;;;;;;;0.60;0.45;;;;;;;23.86;36.91;102753.69;5049404;27;96883;-73
2023/05/18 04:35:17;;;;;;;1.20;0.60;;;;;;;23.86;36.93;102749.06;5048037;27;99757;-73
2023/05/18 04:37:44;;;;;;;1.05;0.50;;;;;;;23.85;36.92;102750.06;5048945;27;99011;-73
2023/05/18 04:40:17;;;;;;;1.33;0.55;;;;;;;23.84;36.96;102753.84;5048457;27;97088;-74
2023/05/18 04:42:48;;;;;;;0.93;0.57;;;;;;;23.85;36.76;102751.97;5032700;27;96901;-73
2023/05/18 04:45:24;;;;;;;2.38;0.57;;;;;;;23.84;36.72;102753.84;5047371;27;96741;-73
2023/05/18 04:47:53;;;;;;;0.80;0.50;;;;;;;23.85;36.77;102757.44;5048301;27;100381;-74
2023/05/18 04:50:22;;;;;;;1.08;0.50;;;;;;;23.84;36.67;102750.22;5049211;27;96883;-73
2023/05/18 04:52:50;;;;;;;0.98;0.55;;;;;;;23.83;36.88;102752.09;5050115;27;96656;-73
2023/05/18 04:55:26;;;;;;;0.63;0.40;;;;;;;23.85;36.91;102757.44;5048163;27;100514;-73
2023/05/18 04:57:59;;;;;;;1.05;0.65;;;;;;;23.83;36.86;102760.34;5048803;27;98801;-73
2023/05/18 05:00:27;;;;;;;0.73;0.60;;;;;;;23.84;36.90;102766.69;5031996;27;97126;-74
2023/05/18 05:02:55;;;;;;;0.90;0.45;;;;;;;23.83;36.75;102753.97;5049008;27;97147;-74
2023/05/18 05:05:24;;;;;;;0.70;0.50;;;;;;;23.82;36.56;102753.13;5048187;27;97875;-73
2023/05/18 05:07:52;;;;;;;1.25;0.50;;;;;;;23.83;36.96;102759.47;5032377;27;99933;-74
2023/05/18 05:10:19;;;;;;;1.55;0.65;;;;;;;23.82;36.79;102758.59;5035701;27;96771;-74
2023/05/18 05:12:48;;;;;;;1.17;0.55;;;;;;;23.84;36.67;102761.19;5048895;27;96995;-73
2023/05/18 05:15:15;;;;;;;1.05;0.68;;;;;;;23.83;36.94;102760.34;5049631;27;98669;-74
2023/05/18 05:17:42;;;;;;;1.08;0.45;;;;;;;23.83;36.74;102773.19;5048747;27;96827;-73
2023/05/18 05:20:09;;;;;;;0.63;0.40;;;;;;;23.83;36.78;102779.53;5050013;27;97241;-73
2023/05/18 05:22:36;;;;;;;1.05;0.50;;;;;;;23.83;36.77;102776.81;5049314;27;96876;-74
2023/05/18 05:25:04;;;;;;;1.00;0.60;;;;;;;23.83;36.93;102770.44;5048044;27;99371;-73
2023/05/18 05:27:32;;;;;;;0.80;0.55;;;;;;;23.82;36.73;102769.59;5065902;27;99202;-73
2023/05/18 05:30:00;;;;;;;1.65;0.60;;;;;;;23.82;36.72;102769.59;5048421;27;97299;-73
2023/05/18 05:32:27;;;;;;;1.13;0.65;;;;;;;23.83;36.53;102767.72;5048499;27;96720;-73
2023/05/18 05:34:53;;;;;;;2.35;0.60;;;;;;;23.83;37.15;102765.81;5047200;27;98850;-73
2023/05/18 05:37:20;;;;;;;0.93;0.52;;;;;;;23.83;36.66;102775.94;5028159;27;96930;-73
2023/05/18 05:39:48;;;;;;;0.80;0.50;;;;;;;23.84;36.47;102773.03;5027956;27;97094;-74
2023/05/18 05:42:24;;;;;;;0.77;0.45;;;;;;;23.84;36.68;102767.56;5045655;27;97386;-73
2023/05/18 05:44:51;;;;;;;0.95;0.45;;;;;;;23.82;36.73;102769.59;5030764;27;96977;-74
2023/05/18 05:47:18;;;;;;;0.95;0.55;;;;;;;23.83;36.61;102767.72;5047693;27;97502;-73
2023/05/18 05:49:45;;;;;;;0.93;0.57;;;;;;;23.83;36.41;102770.44;5048547;27;97109;-73
2023/05/18 05:52:12;;;;;;;1.20;0.50;;;;;;;23.83;36.59;102765.81;5053833;27;98411;-73
2023/05/18 05:54:40;;;;;;;1.05;0.75;;;;;;;23.82;36.74;102769.59;5033594;27;97324;-73
2023/05/18 05:57:08;;;;;;;1.77;0.60;;;;;;;23.82;36.75;102766.84;5041862;27;98864;-73
2023/05/18 05:59:35;;;;;;;1.20;0.52;;;;;;;23.83;37.01;102774.06;5029829;27;98243;-73
2023/05/18 06:02:02;;;;;;;1.70;0.52;;;;;;;23.83;36.74;102768.56;5051491;27;97222;-73
2023/05/18 06:04:29;;;;;;;2.03;0.60;;;;;;;23.83;36.53;102774.06;5050660;27;99351;-73
2023/05/18 06:06:56;;;;;;;1.05;0.60;;;;;;;23.83;36.47;102770.44;5050784;27;98428;-73
2023/05/18 06:09:23;;;;;;;0.77;0.55;;;;;;;23.83;36.73;102768.56;5034506;27;96799;-74
2023/05/18 06:11:49;;;;;;;1.02;0.43;;;;;;;23.83;35.94;102773.19;5051545;27;96901;-73
2023/05/18 06:14:16;;;;;;;1.08;0.63;;;;;;;23.83;36.43;102770.44;5050795;27;98990;-73
2023/05/18 06:16:43;;;;;;;0.88;0.60;;;;;;;23.82;36.44;102772.31;5051105;27;99034;-73
2023/05/18 06:19:10;;;;;;;0.82;0.57;;;;;;;23.83;36.54;102771.31;5051665;27;97224;-74
2023/05/18 06:21:37;;;;;;;0.65;0.50;;;;;;;23.83;36.42;102782.28;5052493;27;97042;-73
2023/05/18 06:24:04;;;;;;;0.93;0.60;;;;;;;23.83;36.55;102778.69;5050246;27;99817;-74
2023/05/18 06:26:38;;;;;;;;;;;;;;;23.80;36.38;102770.75;5051183;27;97161;-74
2023/05/18 06:29:29;;;;;;;1.30;0.60;;;;;;;23.77;36.65;102774.63;5044231;27;96813;-73
2023/05/18 06:31:59;;;;;;;0.65;0.40;;;;;;;23.80;36.66;102773.50;5048651;27;96634;-74
2023/05/18 06:34:39;;;;;;;1.00;0.50;;;;;;;23.79;36.63;102774.50;5050582;27;98181;-74
2023/05/18 06:37:06;;;;;;;1.02;0.55;;;;;;;23.80;36.66;102778.97;5050742;27;99563;-73
2023/05/18 06:39:33;;;;;;;1.77;0.70;;;;;;;23.79;36.70;102774.50;5052601;27;96648;-73
2023/05/18 06:41:59;;;;;;;1.13;0.50;;;;;;;23.80;36.62;102782.59;5051201;27;96938;-73
2023/05/18 06:44:32;;;;;;;2.05;0.70;;;;;;;23.80;36.46;102781.72;5049776;27;99386;-74
2023/05/18 06:47:08;;;;;;;1.60;0.60;;;;;;;23.80;36.48;102787.22;5051912;27;96713;-74
2023/05/18 06:49:35;;;;;;;1.67;0.70;;;;;;;23.80;36.63;102784.47;5050151;27;97121;-74
2023/05/18 06:52:02;;;;;;;1.00;0.45;;;;;;;23.81;36.42;102786.19;5051214;27;96852;-74
2023/05/18 06:54:30;;;;;;;0.85;0.50;;;;;;;23.81;36.50;102789.81;5049725;27;96878;-74
2023/05/18 06:56:58;;;;;;;1.48;0.70;;;;;;;23.82;36.53;102787.94;5050419;27;100175;-73
2023/05/18 06:59:24;;;;;;;0.70;0.40;;;;;;;23.82;36.49;102788.78;5050854;27;97144;-74
2023/05/18 07:01:51;;;;;;;0.73;0.40;;;;;;;23.83;36.63;102795.16;5049867;27;96773;-74
2023/05/18 07:04:19;;;;;;;1.85;0.70;;;;;;;23.82;36.36;102788.78;5050066;27;96849;-74
2023/05/18 07:06:45;;;;;;;1.00;0.47;;;;;;;23.83;36.36;102787.78;5052073;27;96572;-74
2023/05/18 07:09:12;;;;;;;1.00;0.50;;;;;;;23.83;36.43;102790.53;5052000;27;96726;-74
2023/05/18 07:11:39;;;;;;;0.60;0.47;;;;;;;23.83;36.50;102793.25;5050192;27;96785;-74
2023/05/18 07:14:05;;;;;;;1.75;0.60;;;;;;;23.84;36.80;102797.75;5050997;27;97575;-74
2023/05/18 07:16:32;;;;;;;1.17;0.60;;;;;;;23.84;36.59;102795.00;5051328;27;97425;-74
2023/05/18 07:18:59;;;;;;;0.95;0.50;;;;;;;23.84;36.38;102805.09;5051753;27;96781;-74
2023/05/18 07:21:26;;;;;;;1.02;0.55;;;;;;;23.84;36.59;102800.47;5051895;27;96886;-74
2023/05/18 07:23:52;;;;;;;0.52;0.40;;;;;;;23.84;36.73;102805.09;5050822;27;97736;-74
2023/05/18 07:26:21;;;;;;;1.45;0.50;;;;;;;23.84;36.38;102803.22;5051112;27;96647;-74
2023/05/18 07:28:48;;;;;;;1.17;0.77;;;;;;;23.84;36.55;102805.09;5050607;27;97211;-74
2023/05/18 07:31:15;;;;;;;1.50;0.63;;;;;;;23.84;36.52;102800.47;5052327;27;96728;-74
2023/05/18 07:33:43;;;;;;;0.88;0.38;;;;;;;23.85;36.31;102804.09;5051355;27;96891;-74
2023/05/18 07:36:09;;;;;;;1.20;0.60;;;;;;;23.85;36.47;102810.44;5051533;27;96934;-74
2023/05/18 07:38:36;;;;;;;0.88;0.40;;;;;;;23.86;36.59;102806.69;5049670;27;96810;-74
2023/05/18 07:41:03;;;;;;;0.93;0.60;;;;;;;23.85;36.68;102815.94;5052562;27;96746;-75
2023/05/18 07:43:29;;;;;;;1.58;0.50;;;;;;;23.85;36.30;102818.69;5052437;27;97669;-74
2023/05/18 07:45:56;;;;;;;1.30;0.60;;;;;;;23.86;36.39;102812.19;5052696;27;97407;-74
2023/05/18 07:48:22;;;;;;;1.73;0.40;;;;;;;23.86;36.36;102819.53;5056709;27;97158;-74
2023/05/18 07:50:49;;;;;;;0.60;0.50;;;;;;;23.87;36.53;102821.28;5054022;27;96750;-73
2023/05/18 07:53:16;;;;;;;1.58;0.75;;;;;;;23.87;36.54;102824.03;5052723;27;97699;-73
2023/05/18 07:55:42;;;;;;;0.98;0.40;;;;;;;23.87;36.47;102822.13;5051038;27;98468;-74
2023/05/18 07:58:09;;;;;;;1.05;0.47;;;;;;;23.87;36.11;102824.03;5052094;27;96761;-73
2023/05/18 08:00:36;;;;;;;1.10;0.55;;;;;;;23.86;36.16;102828.63;5067497;27;97207;-74
2023/05/18 08:03:03;;;;;;;0.60;0.40;;;;;;;23.87;36.50;102824.03;5050748;27;96764;-74
2023/05/18 08:05:29;;;;;;;1.33;0.77;;;;;;;23.87;36.45;102833.13;5050836;27;97190;-74
2023/05/18 08:07:56;;;;;;;1.00;0.40;;;;;;;23.87;36.27;102835.84;5050210;27;97371;-74
2023/05/18 08:10:23;;;;;;;1.20;0.60;;;;;;;23.87;36.24;102835.84;5051578;27;97126;-74
2023/05/18 08:12:51;;;;;;;1.00;0.60;;;;;;;23.87;36.40;102833.13;5049986;27;96775;-73
2023/05/18 08:15:18;;;;;;;0.90;0.60;;;;;;;23.87;36.13;102833.13;5049326;27;97705;-73
2023/05/18 08:17:46;;;;;;;0.75;0.38;;;;;;;23.87;36.30;102833.13;5051134;27;97010;-74
2023/05/18 08:20:12;;;;;;;1.08;0.60;;;;;;;23.88;36.36;102836.72;5050867;27;96852;-74
2023/05/18 08:22:39;;;;;;;1.40;0.60;;;;;;;23.88;36.10;102834.84;5050566;27;98040;-74
2023/05/18 08:25:06;;;;;;;0.70;0.43;;;;;;;23.88;36.20;102832.09;5050231;27;97377;-74
2023/05/18 08:27:32;;;;;;;1.38;0.52;;;;;;;23.87;36.25;102833.13;5050584;27;96687;-74
2023/05/18 08:29:59;;;;;;;1.15;0.50;;;;;;;23.88;36.24;102818.38;5051217;27;97091;-74
2023/05/18 08:32:26;;;;;;;1.23;0.60;;;;;;;23.88;36.30;102823.88;5036469;27;97225;-74
2023/05/18 08:34:53;;;;;;;1.05;0.52;;;;;;;23.89;36.22;102820.13;5049686;27;99033;-74
2023/05/18 08:37:20;;;;;;;1.40;0.50;;;;;;;23.89;36.29;102822.84;5050656;27;96799;-73
2023/05/18 08:39:47;;;;;;;1.20;0.68;;;;;;;23.90;36.25;102818.22;5049422;27;96947;-74
2023/05/18 08:42:40;;;;;;;1.50;0.63;;;;;;;23.90;36.20;102812.75;5050266;27;97535;-73
2023/05/18 08:45:24;;;;;;;0.70;0.40;;;;;;;23.88;36.32;102812.88;5015934;27;96806;-74
2023/05/18 08:47:54;;;;;;;1.38;0.70;;;;;;;23.89;36.17;102811.88;5048169;27;96751;-74
2023/05/18 08:50:23;;;;;;;1.00;0.60;;;;;;;23.89;36.17;102809.13;5051019;27;96815;-74
2023/05/18 08:52:54;;;;;;;0.93;0.60;;;;;;;23.90;36.21;102813.59;5049186;27;97623;-74
2023/05/18 08:55:22;;;;;;;1.00;0.68;;;;;;;23.90;36.23;102807.25;5049036;27;96729;-73
2023/05/18 08:57:58;;;;;;;0.63;0.50;;;;;;;23.92;36.25;102800.59;5050340;27;96614;-73
2023/05/18 09:00:25;;;;;;;1.25;0.60;;;;;;;23.90;36.46;102794.41;5048842;27;97258;-73
2023/05/18 09:02:52;;;;;;;0.75;0.47;;;;;;;23.90;36.33;102797.16;5049928;27;97482;-73
2023/05/18 09:05:20;;;;;;;1.25;0.60;;;;;;;23.92;36.22;102802.47;5049460;27;96753;-74
2023/05/18 09:07:48;;;;;;;1.02;0.60;;;;;;;23.92;36.10;102797.84;5050579;27;97108;-73
2023/05/18 09:10:16;;;;;;;1.38;0.50;;;;;;;23.93;36.21;102790.50;5050661;27;96848;-74
2023/05/18 09:12:45;;;;;;;0.90;0.60;;;;;;;23.93;36.46;102801.47;5050003;27;96706;-74
2023/05/18 09:15:14;;;;;;;0.75;0.55;;;;;;;23.93;36.22;102799.59;5047650;27;97189;-73
2023/05/18 09:17:41;;;;;;;1.23;0.60;;;;;;;23.93;36.20;102794.09;5049753;27;96778;-73
2023/05/18 09:20:09;;;;;;;1.02;0.30;;;;;;;23.94;36.10;102792.22;5048984;27;97306;-74
2023/05/18 09:22:35;;;;;;;0.88;0.50;;;;;;;23.95;36.15;102794.81;5048657;27;97559;-74
2023/05/18 09:25:02;;;;;;;1.27;0.60;;;;;;;23.94;36.12;102790.34;5048827;27;97544;-74
2023/05/18 09:27:29;;;;;;;0.80;0.50;;;;;;;23.94;36.27;102784.00;5054044;27;96893;-74
2023/05/18 09:29:57;;;;;;;1.33;0.55;;;;;;;23.95;36.31;102789.31;5054054;27;96897;-74
2023/05/18 09:32:24;;;;;;;1.05;0.47;;;;;;;23.95;36.27;102782.97;5039429;27;98941;-74
2023/05/18 09:34:52;;;;;;;0.70;0.30;;;;;;;23.95;36.30;102782.97;5053370;27;97045;-74
2023/05/18 09:37:20;;;;;;;1.00;0.50;;;;;;;23.95;36.15;102786.59;5053281;27;96940;-74
2023/05/18 09:39:58;;;;;;;0.80;0.60;;;;;;;23.96;36.17;102777.34;5053613;27;97545;-74
2023/05/18 09:42:38;;;;;;;1.30;0.70;;;;;;;23.97;36.02;102778.19;5051318;27;97989;-74
2023/05/18 09:45:18;;;;;;;0.95;0.50;;;;;;;23.96;36.15;102781.97;5050863;27;96749;-74
2023/05/18 09:47:45;;;;;;;1.30;0.70;;;;;;;23.95;36.39;102775.59;5052102;27;96845;-74
2023/05/18 09:50:12;;;;;;;1.35;0.50;;;;;;;23.96;36.12;102776.47;5052096;27;97293;-74
2023/05/18 09:52:46;;;;;;;1.30;0.60;;;;;;;23.97;36.12;102772.72;5052954;27;97596;-74
2023/05/18 09:55:15;;;;;;;1.50;0.60;;;;;;;23.95;36.13;102781.09;5053042;27;96670;-74
2023/05/18 09:57:46;;;;;;;0.63;0.40;;;;;;;23.95;36.00;102781.09;5051962;27;96871;-74
2023/05/18 10:00:15;;;;;;;1.05;0.50;;;;;;;23.97;36.19;102783.69;5054066;27;96745;-74
2023/05/18 10:02:50;;;;;;;0.80;0.50;;;;;;;23.96;36.35;102777.34;5053224;27;97472;-74
2023/05/18 10:05:21;;;;;;;0.95;0.43;;;;;;;23.97;36.31;102767.22;5052275;27;96765;-74
2023/05/18 10:07:52;;;;;;;1.20;0.80;;;;;;;23.97;35.65;102772.72;5052641;27;97108;-74
2023/05/18 10:10:22;;;;;;;1.10;0.45;;;;;;;23.96;36.18;102777.34;5053736;27;96872;-74
2023/05/18 10:12:53;;;;;;;1.13;0.50;;;;;;;23.97;36.29;102772.72;5050863;27;96835;-74
2023/05/18 10:15:21;;;;;;;0.90;0.57;;;;;;;23.97;36.25;102773.56;5052131;27;96699;-74
2023/05/18 10:17:50;;;;;;;0.93;0.47;;;;;;;23.97;36.14;102767.22;5051969;27;97039;-74
2023/05/18 10:20:18;;;;;;;0.93;0.50;;;;;;;23.97;36.33;102765.34;5052711;27;97183;-74
2023/05/18 10:22:46;;;;;;;1.60;0.55;;;;;;;23.97;36.37;102764.47;5052494;27;98379;-74
2023/05/18 10:25:25;;;;;;;1.45;0.50;;;;;;;23.99;36.35;102762.44;5052058;27;97559;-74
2023/05/18 10:27:57;;;;;;;2.17;0.63;;;;;;;23.99;36.29;102762.44;5051206;27;97015;-74
2023/05/18 10:30:25;;;;;;;1.30;0.60;;;;;;;23.98;36.17;102760.72;5051106;27;96820;-74
2023/05/18 10:32:55;;;;;;;1.08;0.40;;;;;;;23.97;36.14;102759.84;5051331;27;97305;-74
2023/05/18 10:35:23;;;;;;;1.35;0.50;;;;;;;23.97;36.08;102759.84;5051831;27;96713;-74
2023/05/18 10:37:52;;;;;;;1.10;0.40;;;;;;;23.99;36.10;102745.97;5051368;27;96751;-74
2023/05/18 10:40:19;;;;;;;1.05;0.57;;;;;;;23.97;36.11;102743.38;5033891;27;96711;-75
2023/05/18 10:42:47;;;;;;;1.23;0.60;;;;;;;23.98;36.10;102752.47;5050469;27;98048;-75
2023/05/18 10:45:14;;;;;;;1.27;0.55;;;;;;;23.98;36.38;102753.34;5051101;27;97348;-74
2023/05/18 10:47:42;;;;;;;0.77;0.50;;;;;;;23.98;36.16;102753.34;5050852;27;96605;-74
2023/05/18 10:50:10;;;;;;;1.63;0.60;;;;;;;23.98;35.96;102753.34;5051412;27;96772;-74
2023/05/18 10:52:37;;;;;;;0.70;0.50;;;;;;;23.98;35.90;102739.63;5050665;27;100150;-74
2023/05/18 10:55:05;;;;;;;0.98;0.30;;;;;;;23.99;36.08;102748.72;5049976;27;97319;-74
2023/05/18 10:57:43;;;;;;;0.73;0.60;;;;;;;24.00;36.30;102747.72;5050526;27;96941;-74
2023/05/18 11:00:10;;;;;;;1.77;0.50;;;;;;;23.99;36.22;102740.50;5050948;27;96890;-74
2023/05/18 11:02:41;;;;;;;1.52;0.90;;;;;;;23.98;36.16;102750.59;5051784;27;98107;-74
2023/05/18 11:05:09;;;;;;;1.05;0.60;;;;;;;23.98;36.00;102745.13;5050987;27;97185;-74
2023/05/18 11:07:36;;;;;;;1.02;0.40;;;;;;;23.98;36.19;102730.53;5050562;27;96746;-74
2023/05/18 11:10:08;;;;;;;0.85;0.50;;;;;;;23.99;36.05;102729.50;5050431;27;96851;-74
2023/05/18 11:12:39;;;;;;;1.08;0.40;;;;;;;23.99;36.10;102726.75;5050446;27;97836;-74
2023/05/18 11:15:06;;;;;;;0.50;0.30;;;;;;;23.97;36.05;102726.91;5033134;27;99369;-74
2023/05/18 11:17:33;;;;;;;0.82;0.70;;;;;;;23.98;36.08;102725.03;5051408;27;96850;-74
2023/05/18 11:20:06;;;;;;;1.10;0.60;;;;;;;23.98;36.17;102725.91;5051704;27;96697;-74
2023/05/18 11:22:46;;;;;;;1.27;0.60;;;;;;;23.99;36.17;102719.41;5051308;27;97873;-74
2023/05/18 11:25:31;;;;;;;0.80;0.50;;;;;;;23.99;36.05;102718.53;5051273;27;96769;-74
2023/05/18 11:28:06;;;;;;;1.10;0.40;;;;;;;23.97;35.90;102724.16;5051754;27;97062;-74
2023/05/18 11:30:32;;;;;;;;;;;;;;;23.93;36.27;102721.88;5051542;27;96781;-75
2023/05/18 11:33:41;;;;;;;1.52;0.50;;;;;;;23.93;36.14;102719.13;5050691;27;97939;-74